createdAt,value
2019-03-24T00:01:28.137Z,38.60
2019-03-24T00:04:07.300Z,36.43
2019-03-24T00:06:40.004Z,39.50
2019-03-24T00:09:23.364Z,31.33
2019-03-24T00:12:00.299Z,32.37
2019-03-24T00:14:32.269Z,33.60
2019-03-24T00:17:02.142Z,33.43
2019-03-24T00:22:58.048Z,26.23
2019-03-24T00:25:29.502Z,30.73
2019-03-24T00:27:59.222Z,27.07
2019-03-24T00:30:29.247Z,24.57
2019-03-24T00:32:59.152Z,32.40
2019-03-24T00:35:29.071Z,43.27
2019-03-24T00:38:05.745Z,30.03
2019-03-24T00:40:35.879Z,36.00
2019-03-24T00:43:05.715Z,30.73
2019-03-24T00:45:36.984Z,34.13
2019-03-24T00:48:07.263Z,31.93
2019-03-24T00:50:36.809Z,30.03
2019-03-24T00:53:06.670Z,23.57
2019-03-24T00:55:36.489Z,31.07
2019-03-24T00:58:06.775Z,29.73
2019-03-24T01:00:48.039Z,30.40
2019-03-24T01:03:17.911Z,29.23
2019-03-24T01:05:48.065Z,32.77
2019-03-24T01:08:19.871Z,28.83
2019-03-24T01:10:51.016Z,30.77
2019-03-24T01:13:21.419Z,27.27
2019-03-24T01:15:51.186Z,30.67
2019-03-24T01:18:21.383Z,24.30
2019-03-24T01:21:02.044Z,28.57
2019-03-24T01:23:31.910Z,19.53
2019-03-24T01:26:17.397Z,33.47
2019-03-24T01:28:44.683Z,30.03
2019-03-24T01:31:14.523Z,20.87
2019-03-24T01:33:44.695Z,19.63
2019-03-24T01:36:14.648Z,27.23
2019-03-24T01:38:45.089Z,32.93
2019-03-24T01:41:14.663Z,37.93
2019-03-24T01:43:45.613Z,29.30
2019-03-24T01:46:15.295Z,23.77
2019-03-24T01:48:45.790Z,32.20
2019-03-24T01:51:15.838Z,24.70
2019-03-24T01:53:45.522Z,30.10
2019-03-24T01:56:15.438Z,26.57
2019-03-24T01:58:45.256Z,29.57
2019-03-24T02:01:14.763Z,29.90
2019-03-24T02:03:44.444Z,26.73
2019-03-24T02:06:14.285Z,28.03
2019-03-24T02:08:45.487Z,32.33
2019-03-24T02:11:16.080Z,30.80
2019-03-24T02:13:46.039Z,30.07
2019-03-24T02:16:19.938Z,29.07
2019-03-24T02:18:49.288Z,24.43
2019-03-24T02:21:20.057Z,27.33
2019-03-24T02:23:49.699Z,34.57
2019-03-24T02:26:19.636Z,23.63
2019-03-24T02:28:49.834Z,32.13
2019-03-24T02:31:19.338Z,33.23
2019-03-24T02:33:49.341Z,22.57
2019-03-24T02:36:18.976Z,29.53
2019-03-24T02:38:49.431Z,22.70
2019-03-24T02:41:19.979Z,23.20
2019-03-24T02:43:49.668Z,30.70
2019-03-24T02:46:24.619Z,30.17
2019-03-24T02:48:51.123Z,28.33
2019-03-24T02:51:20.993Z,33.23
2019-03-24T02:53:50.767Z,27.57
2019-03-24T02:56:20.669Z,34.57
2019-03-24T02:58:50.385Z,29.87
2019-03-24T03:01:20.980Z,29.17
2019-03-24T03:04:14.682Z,26.87
2019-03-24T03:06:44.609Z,35.80
2019-03-24T03:09:14.189Z,36.70
2019-03-24T03:11:44.924Z,28.07
2019-03-24T03:14:14.599Z,35.50
2019-03-24T03:16:45.358Z,26.93
2019-03-24T03:19:14.969Z,34.97
2019-03-24T03:21:45.922Z,28.27
2019-03-24T03:24:15.835Z,29.97
2019-03-24T03:26:46.205Z,26.53
2019-03-24T03:29:16.041Z,21.33
2019-03-24T03:31:45.948Z,33.83
2019-03-24T03:34:16.022Z,28.17
2019-03-24T03:36:45.889Z,27.43
2019-03-24T03:39:15.862Z,34.87
2019-03-24T03:41:45.906Z,32.77
2019-03-24T03:44:15.664Z,26.07
2019-03-24T03:46:52.474Z,24.33
2019-03-24T03:49:17.808Z,26.33
2019-03-24T03:51:47.612Z,24.93
2019-03-24T03:54:17.403Z,34.10
2019-03-24T03:56:47.242Z,29.83
2019-03-24T03:59:17.206Z,35.87
2019-03-24T04:01:46.677Z,26.63
2019-03-24T04:04:18.624Z,37.13
2019-03-24T04:06:48.285Z,37.20
2019-03-24T04:09:18.426Z,24.93
2019-03-24T04:11:48.071Z,33.80
2019-03-24T04:14:17.595Z,32.33
2019-03-24T04:16:47.610Z,27.43
2019-03-24T04:19:17.118Z,35.50
2019-03-24T04:21:59.551Z,24.10
2019-03-24T04:25:03.547Z,27.97
2019-03-24T04:27:53.168Z,21.17
2019-03-24T04:30:40.508Z,23.53
2019-03-24T04:33:30.215Z,26.93
2019-03-24T04:35:50.325Z,33.37
2019-03-24T04:38:20.081Z,29.93
2019-03-24T04:40:50.079Z,28.37
2019-03-24T04:43:20.384Z,29.43
2019-03-24T04:45:50.157Z,24.60
2019-03-24T04:48:20.275Z,29.90
2019-03-24T04:50:50.367Z,34.50
2019-03-24T04:53:20.878Z,23.50
2019-03-24T04:55:50.531Z,24.70
2019-03-24T04:58:20.654Z,34.33
2019-03-24T05:00:51.145Z,23.53
2019-03-24T05:03:20.951Z,25.60
2019-03-24T05:05:51.433Z,27.67
2019-03-24T05:08:21.991Z,21.80
2019-03-24T05:10:51.438Z,32.53
2019-03-24T05:13:21.330Z,34.53
2019-03-24T05:15:51.206Z,28.43
2019-03-24T05:18:20.666Z,32.53
2019-03-24T05:20:51.492Z,29.53
2019-03-24T05:23:21.380Z,23.53
2019-03-24T05:25:51.714Z,24.27
2019-03-24T05:28:22.393Z,26.63
2019-03-24T05:30:51.926Z,22.77
2019-03-24T05:33:21.912Z,31.17
2019-03-24T05:35:52.032Z,36.40
2019-03-24T05:38:22.481Z,27.50
2019-03-24T05:40:52.543Z,29.50
2019-03-24T05:43:22.526Z,28.23
2019-03-24T05:45:52.566Z,20.57
2019-03-24T05:48:22.409Z,25.77
2019-03-24T05:50:52.505Z,22.13
2019-03-24T05:53:22.928Z,21.83
2019-03-24T05:55:52.548Z,26.03
2019-03-24T05:58:22.589Z,29.83
2019-03-24T06:00:52.160Z,23.20
2019-03-24T06:03:22.093Z,24.43
2019-03-24T06:05:51.777Z,28.20
2019-03-24T06:08:21.904Z,23.63
2019-03-24T06:10:52.008Z,35.90
2019-03-24T06:13:21.896Z,25.07
2019-03-24T06:15:51.550Z,29.60
2019-03-24T06:18:22.678Z,37.13
2019-03-24T06:20:52.406Z,22.97
2019-03-24T06:23:22.265Z,35.70
2019-03-24T06:25:52.387Z,26.33
2019-03-24T06:28:22.477Z,33.17
2019-03-24T06:30:52.966Z,31.03
2019-03-24T06:33:22.804Z,26.57
2019-03-24T06:35:53.927Z,27.77
2019-03-24T06:38:23.552Z,32.47
2019-03-24T06:40:53.850Z,29.27
2019-03-24T06:43:23.954Z,33.23
2019-03-24T06:45:53.629Z,31.97
2019-03-24T06:48:24.608Z,24.97
2019-03-24T06:50:54.327Z,27.10
2019-03-24T06:53:24.239Z,30.93
2019-03-24T06:55:53.988Z,34.20
2019-03-24T06:58:24.128Z,32.47
2019-03-24T07:00:54.111Z,34.77
2019-03-24T07:03:24.193Z,35.03
2019-03-24T07:05:53.938Z,29.17
2019-03-24T07:08:24.865Z,30.70
2019-03-24T07:11:00.787Z,27.90
2019-03-24T07:13:30.478Z,26.33
2019-03-24T07:16:18.992Z,26.03
2019-03-24T07:18:48.772Z,32.97
2019-03-24T07:21:21.967Z,28.27
2019-03-24T07:23:54.842Z,28.70
2019-03-24T07:26:25.063Z,28.37
2019-03-24T07:28:55.076Z,21.70
2019-03-24T07:31:24.802Z,31.97
2019-03-24T07:33:54.568Z,21.03
2019-03-24T07:36:24.556Z,31.03
2019-03-24T07:38:55.038Z,30.20
2019-03-24T07:41:25.119Z,36.00
2019-03-24T07:43:55.208Z,21.83
2019-03-24T07:46:24.715Z,30.70
2019-03-24T07:48:54.322Z,29.07
2019-03-24T07:51:23.998Z,34.60
2019-03-24T07:53:55.093Z,35.47
2019-03-24T07:56:24.813Z,21.47
2019-03-24T07:58:54.908Z,28.30
2019-03-24T08:01:24.475Z,29.23
2019-03-24T08:03:54.462Z,26.87
2019-03-24T08:06:24.099Z,25.83
2019-03-24T08:08:54.458Z,30.07
2019-03-24T08:11:25.111Z,33.47
2019-03-24T08:13:54.814Z,21.47
2019-03-24T08:16:24.546Z,32.97
2019-03-24T08:18:54.314Z,21.90
2019-03-24T08:21:24.433Z,24.47
2019-03-24T08:23:53.981Z,29.03
2019-03-24T08:26:24.266Z,25.83
2019-03-24T08:28:54.900Z,30.27
2019-03-24T08:31:25.146Z,30.03
2019-03-24T08:33:57.133Z,21.20
2019-03-24T08:36:26.848Z,23.50
2019-03-24T08:38:56.611Z,21.30
2019-03-24T08:41:26.844Z,29.77
2019-03-24T08:43:58.611Z,27.83
2019-03-24T08:46:28.569Z,24.73
2019-03-24T08:48:58.979Z,23.37
2019-03-24T08:51:29.072Z,26.07
2019-03-24T08:53:59.792Z,24.13
2019-03-24T08:56:29.647Z,26.67
2019-03-24T08:58:59.915Z,23.37
2019-03-24T09:01:29.679Z,16.90
2019-03-24T09:03:59.997Z,25.67
2019-03-24T09:06:30.089Z,20.70
2019-03-24T09:08:59.902Z,18.33
2019-03-24T09:11:31.470Z,24.97
2019-03-24T09:14:00.775Z,23.37
2019-03-24T09:16:30.416Z,18.43
2019-03-24T09:19:00.296Z,23.83
2019-03-24T09:21:30.327Z,21.37
2019-03-24T09:24:00.078Z,23.43
2019-03-24T09:26:30.665Z,23.50
2019-03-24T09:29:01.083Z,30.87
2019-03-24T09:31:33.000Z,21.60
2019-03-24T09:34:04.483Z,26.27
2019-03-24T09:36:36.561Z,27.80
2019-03-24T09:39:33.480Z,32.80
2019-03-24T09:42:04.272Z,23.27
2019-03-24T09:44:33.962Z,27.20
2019-03-24T09:47:04.107Z,29.33
2019-03-24T09:49:34.693Z,21.73
2019-03-24T09:52:05.277Z,21.17
2019-03-24T09:54:35.105Z,22.97
2019-03-24T09:57:05.688Z,22.03
2019-03-24T09:59:39.678Z,21.90
2019-03-24T10:02:09.493Z,26.33
2019-03-24T10:04:39.779Z,27.50
2019-03-24T10:07:09.971Z,22.03
2019-03-24T10:09:40.206Z,25.90
2019-03-24T10:12:10.242Z,20.33
2019-03-24T10:14:41.567Z,24.77
2019-03-24T10:17:13.763Z,41.53
2019-03-24T10:19:43.722Z,18.63
2019-03-24T10:22:15.330Z,24.93
2019-03-24T10:24:44.854Z,27.03
2019-03-24T10:27:14.764Z,20.17
2019-03-24T10:29:45.403Z,26.17
2019-03-24T10:32:15.187Z,21.90
2019-03-24T10:34:44.971Z,25.67
2019-03-24T10:37:16.156Z,19.07
2019-03-24T10:39:46.889Z,15.87
2019-03-24T10:42:18.049Z,28.27
2019-03-24T10:44:47.738Z,17.67
2019-03-24T10:47:17.461Z,11.37
2019-03-24T10:49:47.854Z,18.63
2019-03-24T10:52:20.004Z,23.07
2019-03-24T10:54:51.151Z,21.73
2019-03-24T10:57:21.740Z,18.77
2019-03-24T10:59:51.668Z,14.60
2019-03-24T11:02:21.768Z,21.27
2019-03-24T11:04:52.495Z,22.90
2019-03-24T11:07:21.991Z,16.37
2019-03-24T11:09:51.812Z,13.63
2019-03-24T11:12:21.959Z,15.90
2019-03-24T11:14:51.623Z,14.63
2019-03-24T11:17:21.577Z,11.43
2019-03-24T11:19:57.002Z,13.60
2019-03-24T11:22:27.229Z,15.00
2019-03-24T11:24:58.664Z,20.93
2019-03-24T11:27:30.921Z,16.83
2019-03-24T11:30:01.749Z,20.90
2019-03-24T11:32:32.461Z,17.37
2019-03-24T11:35:02.754Z,15.30
2019-03-24T11:37:33.035Z,18.23
2019-03-24T11:40:03.047Z,16.30
2019-03-24T11:42:33.849Z,21.27
2019-03-24T11:45:03.946Z,16.83
2019-03-24T11:47:34.145Z,15.17
2019-03-24T11:50:04.226Z,17.87
2019-03-24T11:52:33.834Z,10.23
2019-03-24T11:55:04.170Z,13.70
2019-03-24T11:57:36.217Z,7.97
2019-03-24T12:00:07.626Z,14.60
2019-03-24T12:02:40.176Z,14.60
2019-03-24T12:05:13.723Z,14.17
2019-03-24T12:07:45.116Z,16.27
2019-03-24T12:10:15.742Z,15.83
2019-03-24T12:12:45.613Z,17.10
2019-03-24T12:15:15.771Z,11.87
2019-03-24T12:17:45.697Z,19.07
2019-03-24T12:20:16.033Z,17.70
2019-03-24T12:22:45.681Z,13.30
2019-03-24T12:25:16.482Z,12.50
2019-03-24T12:27:46.478Z,19.23
2019-03-24T12:30:16.342Z,9.80
2019-03-24T12:32:47.436Z,19.40
2019-03-24T12:35:17.737Z,13.27
2019-03-24T12:37:47.587Z,13.07
2019-03-24T12:40:17.353Z,8.57
2019-03-24T12:42:47.566Z,11.20
2019-03-24T12:45:18.890Z,11.43
2019-03-24T12:47:49.358Z,12.90
2019-03-24T12:50:30.588Z,15.87
2019-03-24T12:52:54.609Z,19.80
2019-03-24T12:55:25.243Z,24.10
2019-03-24T12:57:54.851Z,12.50
2019-03-24T13:00:38.741Z,7.40
2019-03-24T13:03:08.639Z,8.40
2019-03-24T13:05:38.701Z,10.83
2019-03-24T13:08:19.083Z,9.37
2019-03-24T13:10:50.151Z,7.60
2019-03-24T13:13:19.958Z,11.20
2019-03-24T13:15:50.568Z,11.23
2019-03-24T13:18:20.750Z,9.80
2019-03-24T13:20:50.953Z,7.37
2019-03-24T13:23:20.888Z,10.83
2019-03-24T13:25:50.886Z,6.80
2019-03-24T13:28:20.872Z,6.00
2019-03-24T13:30:52.074Z,9.20
2019-03-24T13:33:21.595Z,8.97
2019-03-24T13:36:03.489Z,10.47
2019-03-24T13:38:36.320Z,13.30
2019-03-24T13:41:06.146Z,11.87
2019-03-24T13:43:36.284Z,9.67
2019-03-24T13:46:06.453Z,10.33
2019-03-24T13:48:37.550Z,10.73
2019-03-24T13:51:08.009Z,10.63
2019-03-24T13:53:38.180Z,13.47
2019-03-24T13:56:08.726Z,10.87
2019-03-24T13:58:38.519Z,9.43
2019-03-24T14:01:10.532Z,13.33
2019-03-24T14:03:40.626Z,8.43
2019-03-24T14:06:11.023Z,9.57
2019-03-24T14:08:43.069Z,17.23
2019-03-24T14:11:14.417Z,8.87
2019-03-24T14:13:46.709Z,13.87
2019-03-24T14:16:18.807Z,11.87
2019-03-24T14:18:49.189Z,14.73
2019-03-24T14:21:18.990Z,11.70
2019-03-24T14:23:48.742Z,10.27
2019-03-24T14:26:18.368Z,11.73
2019-03-24T14:28:48.470Z,11.07
2019-03-24T14:31:18.466Z,10.47
2019-03-24T14:33:49.265Z,13.83
2019-03-24T14:36:19.958Z,11.03
2019-03-24T14:38:52.125Z,12.03
2019-03-24T14:41:23.737Z,11.63
2019-03-24T14:43:55.056Z,11.37
2019-03-24T14:46:24.799Z,11.93
2019-03-24T14:48:55.011Z,13.73
2019-03-24T14:51:24.850Z,13.07
2019-03-24T14:53:54.763Z,13.83
2019-03-24T14:56:24.993Z,16.23
2019-03-24T14:58:56.487Z,9.70
2019-03-24T15:01:27.010Z,9.63
2019-03-24T15:03:57.105Z,13.27
2019-03-24T15:06:26.957Z,12.77
2019-03-24T15:08:57.221Z,16.97
2019-03-24T15:11:27.025Z,17.93
2019-03-24T15:13:59.173Z,21.00
2019-03-24T15:20:34.844Z,12.37
2019-03-24T15:23:04.987Z,14.60
2019-03-24T15:25:34.819Z,12.83
2019-03-24T15:28:04.818Z,13.93
2019-03-24T15:30:34.684Z,18.47
2019-03-24T15:33:05.205Z,13.67
2019-03-24T15:35:34.985Z,17.23
2019-03-24T15:38:08.781Z,15.57
2019-03-24T15:40:38.464Z,19.50
2019-03-24T15:43:08.848Z,12.63
2019-03-24T15:45:38.868Z,13.67
2019-03-24T15:48:09.580Z,13.83
2019-03-24T15:50:39.695Z,15.80
2019-03-24T15:53:09.670Z,14.60
2019-03-24T15:55:39.089Z,16.97
2019-03-24T15:58:08.935Z,15.43
2019-03-24T16:00:44.217Z,20.17
2019-03-24T16:03:20.317Z,14.13
2019-03-24T16:05:50.242Z,17.53
2019-03-24T16:08:20.453Z,18.20
2019-03-24T16:10:51.319Z,18.83
2019-03-24T16:13:21.466Z,18.90
2019-03-24T16:15:52.068Z,17.83
2019-03-24T16:18:22.139Z,17.07
2019-03-24T16:20:55.491Z,11.20
2019-03-24T16:23:25.593Z,17.47
2019-03-24T16:25:55.892Z,15.43
2019-03-24T16:28:25.920Z,15.23
2019-03-24T16:35:08.259Z,21.37
2019-03-24T16:37:39.854Z,28.90
2019-03-24T16:40:10.138Z,22.17
2019-03-24T16:42:40.588Z,18.30
2019-03-24T16:45:13.763Z,22.40
2019-03-24T16:47:45.761Z,22.07
2019-03-24T16:50:15.876Z,12.73
2019-03-24T16:52:46.714Z,19.87
2019-03-24T16:55:16.952Z,14.87
2019-03-24T16:57:49.777Z,17.70
2019-03-24T17:00:19.525Z,17.43
2019-03-24T17:02:49.855Z,15.63
2019-03-24T17:05:20.003Z,15.43
2019-03-24T17:07:50.798Z,21.87
2019-03-24T17:10:21.686Z,13.57
2019-03-24T17:12:51.650Z,24.60
2019-03-24T17:15:22.277Z,26.00
2019-03-24T17:17:52.383Z,21.27
2019-03-24T17:20:24.138Z,18.87
2019-03-24T17:22:54.413Z,16.33
2019-03-24T17:25:24.294Z,16.83
2019-03-24T17:27:55.333Z,17.37
2019-03-24T17:30:25.343Z,15.30
2019-03-24T17:32:55.985Z,17.40
2019-03-24T17:35:26.095Z,10.63
2019-03-24T17:38:03.665Z,11.63
2019-03-24T17:40:38.733Z,13.93
2019-03-24T17:43:07.775Z,14.73
2019-03-24T17:45:37.462Z,16.07
2019-03-24T17:48:07.682Z,15.80
2019-03-24T17:50:37.709Z,12.70
2019-03-24T17:53:08.256Z,10.00
2019-03-24T17:55:41.216Z,11.97
2019-03-24T17:58:11.813Z,15.07
2019-03-24T18:00:45.471Z,17.20
2019-03-24T18:03:15.558Z,17.07
2019-03-24T18:05:45.671Z,14.50
2019-03-24T18:08:15.903Z,17.60
2019-03-24T18:11:01.733Z,18.83
2019-03-24T18:13:31.716Z,15.20
2019-03-24T18:16:01.656Z,14.47
2019-03-24T18:18:33.874Z,14.63
2019-03-24T18:21:06.084Z,15.83
2019-03-24T18:23:41.620Z,17.40
2019-03-24T18:26:11.613Z,21.70
2019-03-24T18:28:44.127Z,20.53
2019-03-24T18:31:16.530Z,17.47
2019-03-24T18:33:46.573Z,16.90
2019-03-24T18:36:16.500Z,12.40
2019-03-24T18:38:46.537Z,15.20
2019-03-24T18:41:16.246Z,20.47
2019-03-24T18:43:46.106Z,12.80
2019-03-24T18:46:15.801Z,23.87
2019-03-24T18:48:46.272Z,60.10
2019-03-24T18:51:17.445Z,59.97
2019-03-24T18:53:47.422Z,53.43
2019-03-24T18:56:17.295Z,37.97
2019-03-24T18:58:47.210Z,12.00
2019-03-24T19:01:17.909Z,14.37
2019-03-24T19:03:48.222Z,14.73
2019-03-24T19:06:18.279Z,15.03
2019-03-24T19:08:48.390Z,14.20
2019-03-24T19:11:23.282Z,14.73
2019-03-24T19:13:52.694Z,18.33
2019-03-24T19:16:23.012Z,17.23
2019-03-24T19:18:52.973Z,10.80
2019-03-24T19:21:27.198Z,18.00
2019-03-24T19:23:57.615Z,16.50
2019-03-24T19:26:27.431Z,14.33
2019-03-24T19:29:04.699Z,14.07
2019-03-24T19:31:34.449Z,17.33
2019-03-24T19:34:04.532Z,9.27
2019-03-24T19:36:36.247Z,18.33
2019-03-24T19:39:09.674Z,20.17
2019-03-24T19:41:39.385Z,14.33
2019-03-24T19:44:09.309Z,9.97
2019-03-24T19:46:40.070Z,13.20
2019-03-24T19:49:12.914Z,16.63
2019-03-24T19:51:42.984Z,14.90
2019-03-24T19:54:15.153Z,9.27
2019-03-24T19:56:44.536Z,10.23
2019-03-24T19:59:19.376Z,8.90
2019-03-24T20:01:52.980Z,10.87
2019-03-24T20:04:26.849Z,11.03
2019-03-24T20:07:01.264Z,12.30
2019-03-24T20:09:33.024Z,8.53
2019-03-24T20:12:27.725Z,10.80
2019-03-24T20:15:05.014Z,11.30
2019-03-24T20:17:43.472Z,13.30
2019-03-24T20:20:19.928Z,13.07
2019-03-24T20:22:56.844Z,15.33
2019-03-24T20:25:27.946Z,16.07
2019-03-24T20:28:18.950Z,15.73
2019-03-24T20:30:42.002Z,14.27
2019-03-24T20:33:17.489Z,9.30
2019-03-24T20:35:47.410Z,13.97
2019-03-24T20:38:17.113Z,9.73
2019-03-24T20:40:46.856Z,9.63
2019-03-24T20:43:18.455Z,10.50
2019-03-24T20:45:49.142Z,9.43
2019-03-24T20:48:20.069Z,10.83
2019-03-24T20:50:50.566Z,7.57
2019-03-24T20:53:20.488Z,17.37
2019-03-24T20:55:50.757Z,11.47
2019-03-24T20:58:20.817Z,7.00
2019-03-24T21:00:50.911Z,7.83
2019-03-24T21:03:21.902Z,9.87
2019-03-24T21:05:51.471Z,14.30
2019-03-24T21:08:21.446Z,10.13
2019-03-24T21:10:51.834Z,12.47
2019-03-24T21:13:24.207Z,16.47
2019-03-24T21:15:54.447Z,17.17
2019-03-24T21:18:24.804Z,11.70
2019-03-24T21:20:54.905Z,13.63
2019-03-24T21:23:29.705Z,10.67
2019-03-24T21:25:59.027Z,10.73
2019-03-24T21:28:28.763Z,12.77
2019-03-24T21:30:58.704Z,14.40
2019-03-24T21:33:29.734Z,10.23
2019-03-24T21:36:00.439Z,11.87
2019-03-24T21:38:30.279Z,12.70
2019-03-24T21:41:00.547Z,9.27
2019-03-24T21:43:30.017Z,11.10
2019-03-24T21:45:59.858Z,14.83
2019-03-24T21:48:29.716Z,7.00
2019-03-24T21:50:59.869Z,7.63
2019-03-24T21:53:40.122Z,9.03
2019-03-24T21:56:01.019Z,9.97
2019-03-24T21:58:30.926Z,18.40
2019-03-24T22:01:00.786Z,12.43
2019-03-24T22:03:30.439Z,16.47
2019-03-24T22:06:01.418Z,12.93
2019-03-24T22:08:30.919Z,11.20
2019-03-24T22:11:00.745Z,13.47
2019-03-24T22:13:30.990Z,10.73
2019-03-24T22:16:00.637Z,19.90
2019-03-24T22:18:30.164Z,18.47
2019-03-24T22:20:59.824Z,12.63
2019-03-24T22:23:30.870Z,10.90
2019-03-24T22:26:00.715Z,15.47
2019-03-24T22:28:30.865Z,9.77
2019-03-24T22:31:00.869Z,10.03
2019-03-24T22:33:30.807Z,17.27
2019-03-24T22:36:00.380Z,11.23
2019-03-24T22:38:30.019Z,13.83
2019-03-24T22:40:59.826Z,25.67
2019-03-24T22:43:30.193Z,19.80
2019-03-24T22:45:59.788Z,13.67
2019-03-24T22:48:29.878Z,18.43
2019-03-24T22:50:59.668Z,8.03
2019-03-24T22:53:29.702Z,20.23
2019-03-24T22:55:59.869Z,16.43
2019-03-24T22:58:29.395Z,12.40
2019-03-24T23:00:59.447Z,18.53
2019-03-24T23:03:29.585Z,24.60
2019-03-24T23:05:59.545Z,11.33
2019-03-24T23:08:29.524Z,14.50
2019-03-24T23:10:59.891Z,13.93
2019-03-24T23:13:29.969Z,17.67
2019-03-24T23:15:59.856Z,11.47
2019-03-24T23:18:29.762Z,12.83
2019-03-24T23:20:59.289Z,15.23
2019-03-24T23:23:29.181Z,16.93
2019-03-24T23:25:58.972Z,13.50
2019-03-24T23:28:29.321Z,14.30
2019-03-24T23:30:59.423Z,12.47
2019-03-24T23:33:29.326Z,9.90
2019-03-24T23:35:59.476Z,10.73
2019-03-24T23:38:29.714Z,11.13
2019-03-24T23:40:59.733Z,17.37
2019-03-24T23:43:37.117Z,17.47
2019-03-24T23:46:07.203Z,13.00
2019-03-24T23:48:37.074Z,11.20
2019-03-24T23:51:06.448Z,7.40
2019-03-24T23:53:37.172Z,15.20
2019-03-24T23:56:07.406Z,9.90
2019-03-24T23:58:41.092Z,11.30
